Ourem, Brazil
Current Conditions -  °F | °C
As of 3:00 PM on Thursday 23 Oct 2014 (Local Time) from SBBE Reporting Station
Broken Clouds Broken Clouds  
Wind Chill: 84°   Ceiling: 3500
Heat Index: 92°   Visibility: 6mi
Dew Point: 75°   Wind: 6mph
Humidity: 74%   Direction: 330°NNW
Pressure: 29.83"   Gusts: NA
Location:  1.55°S, 47.11°W
Report Text: SBBE 231800Z 33005KT 9999 BKN035 FEW040TCU 29/24 Q1010
Loading
Personal Weather Stations






























Interactive Weather Map
Tropical Storm Tracking
New forecast layout! Learn more

10-Day Weather Forecast

Advertisements
Track Severe Weather on mobile